Terminal Aerodrome Forecast
Issued by NWS

Home | Current Version | Previous Version | Text Only | Print | Product List | Glossary On
Versions: 1 2 3 4 5 6 7 8 9 10 11 12 13 14
000
FTUS42 KRAH 261124
TAFINT
TAF
KINT 261124Z 2612/2712 24008KT P6SM SCT250
     FM261800 25007KT P6SM BKN060 PROB30 2621/2702 VRB15G30KT 2SM
      TSRA BKN025CB=

USA.gov is the U.S. government's official web portal to all federal, state and local government web resources and services.